Burns Pinion Ridge Reserve, California Weather observations

Data are for 10 minute period ending at time listed.
 Day   Time   Solar   Ave.   Ave.  Ave.  Vector  Max.   Baro.   Total    
  of    of     Rad.   Air    Rel.  Wind   Wind   Wind  Press.  Precip.   
Year   Day            Temp.  Hum.  Speed  Dir.   Gust                    
2014   (PST)  Kw/m2    F      %     mph   deg.    mph    mb.     in.     
-------------------------------------------------------------------------
 296    5:10   0.00   50.6    32    0.5   230     2.0   877.9    0.00 
 296    5:20   0.00   50.4    32    0.8   261     1.9   877.9    0.00 
 296    5:30   0.00   50.3    33    0.0   285     0.4   878.0    0.00 
 296    5:40   0.00   49.5    34    0.6   297     2.3   878.0    0.00 
 296    5:50   0.00   49.5    36    0.1   309     0.9   878.0    0.00 
 296    6:00   0.00   49.0    38    0.1   344     1.3   878.1    0.00 
 296    6:10   0.01   49.3    39    0.5   341     1.5   878.2    0.00 
 296    6:20   0.01   50.0    40    0.1   226     0.9   878.2    0.00 
 296    6:30   0.01   50.3    41    0.5   240     1.1   878.2    0.00 
 296    6:40   0.01   50.9    45    0.3   296     1.5   878.3    0.00 
 296    6:50   0.09   54.3    43    0.4   342     1.3   878.4    0.00 
 296    7:00   0.15   63.8    31    0.0     0     0.0   878.5    0.00 
 296    7:10   0.17   68.8    27    0.9   225     4.4   878.7    0.00 
 296    7:20   0.22   70.5    30    2.5   224     4.4   878.7    0.00 
 296    7:30   0.25   71.6    29    3.2   217     6.6   878.7    0.00 
 296    7:40   0.29   71.6    30    4.0   213     6.7   878.8    0.00 
 296    7:50   0.32   72.3    30    3.6   210     6.6   878.9    0.00 
 296    8:00   0.36   72.4    30    4.3   211     6.9   879.1    0.00 
 296    8:10   0.39   72.9    29    4.9   205     9.9   879.2    0.00 
 296    8:20   0.42   73.0    30    4.5   199     9.9   879.4    0.00 
 296    8:30   0.45   73.0    30    6.0   198    12.3   879.4    0.00 
 296    8:40   0.48   72.6    30    5.3   201    10.4   879.4    0.00 
 296    8:50   0.52   72.8    30    6.2   202    12.6   879.5    0.00 
 296    9:00   0.53   72.8    29    6.7   208    14.8   879.4    0.00 
 296    9:10   0.57   72.6    30    6.7   209    14.0   879.4    0.00 
 296    9:20   0.59   73.3    29    7.5   207    16.4   879.4    0.00 
 296    9:30   0.61   73.5    28    7.4   206    15.0   879.4    0.00 
 296    9:40   0.63   73.9    28    8.1   205    15.9   879.5    0.00 
 296    9:50   0.65   74.2    27    7.2   205    13.4   879.5    0.00 
 296   10:00   0.67   74.1    26    7.7   202    15.3   879.6    0.00 
 296   10:10   0.69   75.2    25    7.5   196    14.6   879.5    0.00 
 296   10:20   0.67   75.8    24    7.3   197    14.4   879.5    0.00 
 296   10:30   0.71   76.2    23    6.0   192    13.6   879.5    0.00 
 296   10:40   0.72   76.9    22    6.2   182    13.2   879.4    0.00 
 296   10:50   0.73   76.7    21    6.7   203    14.9   879.4    0.00 
 296   11:00   0.74   76.4    20    6.7   193    16.6   879.3    0.00 
 296   11:10   0.75   77.8    18    5.7   186    14.8   879.2    0.00 
 296   11:20   0.75   77.8    18    7.0   199    16.4   879.1    0.00 
 296   11:30   0.73   77.3    16   10.7   142    17.8   878.9    0.00 
 296   11:40   0.75   77.9    16    9.7   149    17.1   878.8    0.00 
 296   11:50   0.75   78.2    17    6.5   174    14.3   878.7    0.00 
 296   12:00   0.75   78.0    17    9.6   162    18.6   878.5    0.00 
 296   12:10   0.74   77.6    18   11.4   144    19.6   878.4    0.00 
 296   12:20   0.73   77.8    18    9.9   149    16.4   878.3    0.00 
 296   12:30   0.72   79.0    17    4.7   181    11.8   878.3    0.00 
 296   12:40   0.72   80.0    17    6.0   199    12.5   878.2    0.00 
 296   12:50   0.70   78.5    18    8.1   203    15.3   878.1    0.00 
 296   13:00   0.68   78.3    18    8.5   208    17.5   878.0    0.00 
 296   13:10   0.67   78.3    18    7.2   197    15.3   877.9    0.00 
 296   13:20   0.65   78.9    18    7.6   207    16.7   877.8    0.00 
 296   13:30   0.61   77.9    18    8.5   218    15.9   877.7    0.00 
 296   13:40   0.55   78.5    18    8.1   211    15.0   877.6    0.00 
 296   13:50   0.50   78.0    18    7.8   219    16.4   877.6    0.00 
 296   14:00   0.44   77.5    19    9.4   216    16.7   877.6    0.00 
 296   14:10   0.39   76.7    20    7.7   214    14.8   877.5    0.00 
 296   14:20   0.34   76.1    21    9.3   215    16.1   877.5    0.00 
 296   14:30   0.31   75.8    21    9.9   211    15.2   877.4    0.00 
 296   14:40   0.29   75.3    22    9.4   215    17.2   877.4    0.00 
 296   14:50   0.28   75.3    22    8.7   215    17.5   877.5    0.00 
 296   15:00   0.27   75.2    22    8.9   214    14.1   877.5    0.00 
 296   15:10   0.27   75.2    22    8.9   215    15.0   877.5    0.00 
 296   15:20   0.27   74.5    23    9.4   215    16.1   877.5    0.00 
 296   15:30   0.27   74.8    23    8.6   213    14.5   877.5    0.00 
 296   15:40   0.25   74.9    22    9.6   216    15.0   877.5    0.00 
 296   15:50   0.22   74.9    23    9.1   215    14.2   877.5    0.00 
 296   16:00   0.18   74.9    23    8.1   214    13.7   877.5    0.00 
 296   16:10   0.15   74.5    24    7.7   205    14.4   877.4    0.00 
 296   16:20   0.12   73.7    25    9.1   214    13.4   877.3    0.00 
 296   16:30   0.08   73.0    25    7.8   210    13.9   877.4    0.00 
 296   16:40   0.01   71.5    27    8.4   209    14.8   877.4    0.00 
 296   16:50   0.01   71.0    27    8.7   206    15.6   877.4    0.00 
 296   17:00   0.01   70.6    28    7.4   211    13.5   877.4    0.00 
 296   17:10   0.00   70.2    30    9.2   210    14.3   877.3    0.00 
 296   17:20   0.00   69.7    31    7.4   205    12.1   877.3    0.00 
 296   17:30   0.00   69.5    32    8.8   211    13.9   877.3    0.00 
 296   17:40   0.00   69.3    32    8.2   213    13.9   877.4    0.00 
 296   17:50   0.00   68.9    33    6.8   212    13.1   877.5    0.00 
 296   18:00   0.00   68.7    33    7.2   209    11.7   877.5    0.00 
 296   18:10   0.00   68.5    33    6.2   211    11.0   877.5    0.00 
 296   18:20   0.00   68.4    34    7.0   212    12.0   877.5    0.00 
 296   18:30   0.00   68.2    34    6.3   210    12.1   877.5    0.00 
 296   18:40   0.00   68.1    34    6.9   207    10.3   877.6    0.00 
 296   18:50   0.00   68.0    34    7.1   205    11.8   877.6    0.00 
 296   19:00   0.00   68.3    33    8.6   210    12.9   877.6    0.00 
 296   19:10   0.00   68.2    33    8.8   212    13.4   877.6    0.00 
 296   19:20   0.00   68.1    33    9.2   212    14.0   877.6    0.00 
 296   19:30   0.00   67.9    33    8.0   209    12.1   877.6    0.00 
 296   19:40   0.00   67.8    33    7.2   210    13.2   877.6    0.00 
 296   19:50   0.00   67.7    33    6.9   209    11.2   877.7    0.00 
 296   20:00   0.00   67.3    33    6.0   210    10.0   877.7    0.00 
 296   20:10   0.00   67.0    34    4.5   216     8.8   877.8    0.00 
 296   20:20   0.00   66.9    33    6.0   216    11.6   877.8    0.00 
 296   20:30   0.00   67.6    32    7.2   211    10.5   877.8    0.00 
 296   20:40   0.00   67.4    32    7.6   211    11.5   877.8    0.00 
 296   20:50   0.00   67.2    33    6.0   212    11.0   877.9    0.00 
 296   21:00   0.00   66.7    33    5.6   215     9.4   877.9    0.00 
 296   21:10   0.00   66.5    33    5.2   220     9.0   878.0    0.00 
 296   21:20   0.00   66.4    33    5.1   219     8.6   877.9    0.00 
 296   21:30   0.00   66.4    33    5.3   222     9.3   877.9    0.00 
 296   21:40   0.00   66.4    32    5.1   221     9.9   878.0    0.00 
 296   21:50   0.00   66.2    33    4.1   225     7.5   878.0    0.00 
 296   22:00   0.00   66.1    32    5.2   224    10.2   878.0    0.00 
 296   22:10   0.00   66.7    31    7.1   214    12.7   877.9    0.00 
 296   22:20   0.00   66.8    31    6.6   213    10.7   877.9    0.00 
 296   22:30   0.00   66.7    32    7.4   214    11.7   877.8    0.00 
 296   22:40   0.00   66.6    32    6.8   215    11.2   877.8    0.00 
 296   22:50   0.00   66.5    33    6.0   211     9.5   877.8    0.00 
 296   23:00   0.00   66.1    33    3.8   220     8.3   877.8    0.00 
 296   23:10   0.00   64.7    34    2.5   255     6.1   877.8    0.00 
 296   23:20   0.00   63.1    36    3.4   261     7.2   877.7    0.00 
 296   23:30   0.00   64.3    36    3.9   239     8.1   877.7    0.00 
 296   23:40   0.00   64.5    36    3.5   221     6.5   877.8    0.00 
 296   23:50   0.00   64.4    36    3.6   226     6.3   877.8    0.00 
 297    0:00   0.00   64.4    36    3.6   220     6.6   877.8    0.00 
 297    0:10   0.00   64.1    36    3.2   224     6.4   877.8    0.00 
 297    0:20   0.00   63.6    37    2.6   227     5.6   877.8    0.00 
 297    0:30   0.00   63.9    36    3.4   231     6.9   877.8    0.00 
 297    0:40   0.00   64.1    36    3.9   232     7.1   877.8    0.00 
 297    0:50   0.00   64.2    35    4.3   236     6.8   877.8    0.00 
 297    1:00   0.00   64.2    35    4.7   237     8.0   877.7    0.00 
 297    1:10   0.00   64.1    35    4.6   234     8.7   877.7    0.00 
 297    1:20   0.00   64.2    35    5.1   233     8.6   877.6    0.00 
 297    1:30   0.00   64.2    35    5.2   232     7.6   877.6    0.00 
 297    1:40   0.00   64.3    35    5.2   232     8.6   877.5    0.00 
 297    1:50   0.00   64.2    34    4.9   230     8.6   877.5    0.00 
 297    2:00   0.00   64.3    34    4.8   229     7.9   877.5    0.00 
 297    2:10   0.00   64.5    33    4.5   231     6.8   877.4    0.00 
 297    2:20   0.00   64.2    33    4.2   228     6.9   877.4    0.00 
 297    2:30   0.00   64.0    34    4.3   228     7.0   877.3    0.00 
 297    2:40   0.00   63.9    33    4.2   231     6.3   877.3    0.00 
 297    2:50   0.00   63.5    34    3.8   234     5.9   877.3    0.00 
 297    3:00   0.00   62.7    34    3.6   236     5.7   877.3    0.00 
 297    3:10   0.00   62.8    34    3.2   231     5.6   877.3    0.00 
 297    3:20   0.00   62.7    34    3.6   234     5.3   877.3    0.00 
 297    3:30   0.00   63.2    34    4.4   230     6.4   877.3    0.00 
 297    3:40   0.00   63.4    33    4.3   230     6.9   877.3    0.00 
 297    3:50   0.00   63.5    32    3.8   232     5.9   877.3    0.00 
 297    4:00   0.00   63.8    32    3.9   235     6.1   877.3    0.00 
 297    4:10   0.00   63.8    31    4.3   230     6.6   877.4    0.00 
 297    4:20   0.00   64.1    31    4.5   235     6.9   877.4    0.00 
 297    4:30   0.00   64.3    30    4.4   233     7.3   877.4    0.00 
 297    4:40   0.00   64.1    30    4.7   230     6.4   877.5    0.00 
 297    4:50   0.00   64.1    30    4.3   231     6.5   877.5    0.00 
 297    5:00   0.00   64.0    30    4.2   230     6.3   877.5    0.00 

Return to Burns Pinion Ridge Reserve graphs page.


Western Regional Climate Center,wrcc@dri.edu